sensor_id;sensor_type;location;lat;lon;timestamp;P1;durP1;ratioP1;P2;durP2;ratioP2
62475;SDS011;50739;45.670;11.936;2024-01-06T00:01:33;4.63;;;2.42;;
62475;SDS011;50739;45.670;11.936;2024-01-06T00:06:36;5.03;;;2.73;;
62475;SDS011;50739;45.670;11.936;2024-01-06T00:11:39;4.53;;;2.63;;
62475;SDS011;50739;45.670;11.936;2024-01-06T00:16:42;2.30;;;1.88;;
62475;SDS011;50739;45.670;11.936;2024-01-06T00:21:44;3.22;;;2.42;;
62475;SDS011;50739;45.670;11.936;2024-01-06T00:26:48;2.72;;;1.67;;
62475;SDS011;50739;45.670;11.936;2024-01-06T00:31:50;1.65;;;1.20;;
62475;SDS011;50739;45.670;11.936;2024-01-06T00:36:52;2.07;;;1.20;;
62475;SDS011;50739;45.670;11.936;2024-01-06T00:41:56;1.38;;;1.00;;
62475;SDS011;50739;45.670;11.936;2024-01-06T00:46:59;0.85;;;0.82;;
62475;SDS011;50739;45.670;11.936;2024-01-06T00:52:01;1.60;;;1.00;;
62475;SDS011;50739;45.670;11.936;2024-01-06T00:57:05;0.80;;;0.75;;
62475;SDS011;50739;45.670;11.936;2024-01-06T01:02:08;0.90;;;0.60;;
62475;SDS011;50739;45.670;11.936;2024-01-06T01:07:10;0.60;;;0.60;;
62475;SDS011;50739;45.670;11.936;2024-01-06T01:12:15;1.10;;;0.60;;
62475;SDS011;50739;45.670;11.936;2024-01-06T01:17:17;1.30;;;0.52;;
62475;SDS011;50739;45.670;11.936;2024-01-06T01:22:19;0.77;;;0.45;;
62475;SDS011;50739;45.670;11.936;2024-01-06T01:27:23;2.55;;;0.60;;
62475;SDS011;50739;45.670;11.936;2024-01-06T01:32:26;0.70;;;0.40;;
62475;SDS011;50739;45.670;11.936;2024-01-06T01:37:28;0.82;;;0.50;;
62475;SDS011;50739;45.670;11.936;2024-01-06T01:42:32;1.63;;;1.38;;
62475;SDS011;50739;45.670;11.936;2024-01-06T01:47:34;0.40;;;0.40;;
62475;SDS011;50739;45.670;11.936;2024-01-06T01:52:37;0.40;;;0.40;;
62475;SDS011;50739;45.670;11.936;2024-01-06T01:57:41;0.30;;;0.30;;
62475;SDS011;50739;45.670;11.936;2024-01-06T02:02:44;0.68;;;0.50;;
62475;SDS011;50739;45.670;11.936;2024-01-06T02:07:46;0.77;;;0.30;;
62475;SDS011;50739;45.670;11.936;2024-01-06T02:12:53;0.70;;;0.40;;
62475;SDS011;50739;45.670;11.936;2024-01-06T02:17:55;0.95;;;0.40;;
62475;SDS011;50739;45.670;11.936;2024-01-06T02:22:59;0.52;;;0.40;;
62475;SDS011;50739;45.670;11.936;2024-01-06T02:28:01;0.40;;;0.30;;
62475;SDS011;50739;45.670;11.936;2024-01-06T02:33:04;0.30;;;0.22;;
62475;SDS011;50739;45.670;11.936;2024-01-06T02:38:07;0.55;;;0.30;;
62475;SDS011;50739;45.670;11.936;2024-01-06T02:43:10;0.57;;;0.30;;
62475;SDS011;50739;45.670;11.936;2024-01-06T02:48:12;0.30;;;0.20;;
62475;SDS011;50739;45.670;11.936;2024-01-06T02:53:16;0.20;;;0.20;;
62475;SDS011;50739;45.670;11.936;2024-01-06T02:58:18;0.90;;;0.30;;
62475;SDS011;50739;45.670;11.936;2024-01-06T03:03:21;0.35;;;0.20;;
62475;SDS011;50739;45.670;11.936;2024-01-06T03:08:25;0.60;;;0.30;;
62475;SDS011;50739;45.670;11.936;2024-01-06T03:13:27;1.50;;;0.35;;
62475;SDS011;50739;45.670;11.936;2024-01-06T03:18:29;0.60;;;0.30;;
62475;SDS011;50739;45.670;11.936;2024-01-06T03:23:33;0.40;;;0.40;;
62475;SDS011;50739;45.670;11.936;2024-01-06T03:28:35;0.70;;;0.70;;
62475;SDS011;50739;45.670;11.936;2024-01-06T03:33:38;0.50;;;0.50;;
62475;SDS011;50739;45.670;11.936;2024-01-06T03:38:42;0.90;;;0.80;;
62475;SDS011;50739;45.670;11.936;2024-01-06T03:43:44;1.15;;;0.70;;
62475;SDS011;50739;45.670;11.936;2024-01-06T03:48:47;1.67;;;0.70;;
62475;SDS011;50739;45.670;11.936;2024-01-06T03:53:50;0.80;;;0.70;;
62475;SDS011;50739;45.670;11.936;2024-01-06T03:58:53;1.20;;;0.70;;
62475;SDS011;50739;45.670;11.936;2024-01-06T04:03:55;0.90;;;0.73;;
62475;SDS011;50739;45.670;11.936;2024-01-06T04:08:59;0.70;;;0.60;;
62475;SDS011;50739;45.670;11.936;2024-01-06T04:14:02;0.88;;;0.73;;
62475;SDS011;50739;45.670;11.936;2024-01-06T04:19:04;0.90;;;0.70;;
62475;SDS011;50739;45.670;11.936;2024-01-06T04:24:09;1.23;;;1.00;;
62475;SDS011;50739;45.670;11.936;2024-01-06T04:29:12;1.38;;;0.82;;
62475;SDS011;50739;45.670;11.936;2024-01-06T04:34:14;1.00;;;0.80;;
62475;SDS011;50739;45.670;11.936;2024-01-06T04:39:18;1.40;;;0.93;;
62475;SDS011;50739;45.670;11.936;2024-01-06T04:44:20;1.27;;;1.02;;
62475;SDS011;50739;45.670;11.936;2024-01-06T04:49:23;1.42;;;0.98;;
62475;SDS011;50739;45.670;11.936;2024-01-06T04:54:27;0.82;;;0.82;;
62475;SDS011;50739;45.670;11.936;2024-01-06T04:59:29;0.80;;;0.80;;
62475;SDS011;50739;45.670;11.936;2024-01-06T05:04:32;0.73;;;0.73;;
62475;SDS011;50739;45.670;11.936;2024-01-06T05:09:35;1.10;;;0.80;;
62475;SDS011;50739;45.670;11.936;2024-01-06T05:14:38;0.85;;;0.80;;
62475;SDS011;50739;45.670;11.936;2024-01-06T05:19:40;0.70;;;0.70;;
62475;SDS011;50739;45.670;11.936;2024-01-06T05:24:44;0.77;;;0.70;;
62475;SDS011;50739;45.670;11.936;2024-01-06T05:29:46;1.00;;;0.80;;
62475;SDS011;50739;45.670;11.936;2024-01-06T05:34:49;1.50;;;0.80;;
62475;SDS011;50739;45.670;11.936;2024-01-06T05:39:53;1.52;;;0.77;;
62475;SDS011;50739;45.670;11.936;2024-01-06T05:44:56;0.70;;;0.70;;
62475;SDS011;50739;45.670;11.936;2024-01-06T05:49:58;1.00;;;0.70;;
62475;SDS011;50739;45.670;11.936;2024-01-06T05:55:02;0.70;;;0.70;;
62475;SDS011;50739;45.670;11.936;2024-01-06T06:00:07;1.20;;;0.60;;
62475;SDS011;50739;45.670;11.936;2024-01-06T06:05:11;0.87;;;0.70;;
62475;SDS011;50739;45.670;11.936;2024-01-06T06:10:15;0.60;;;0.60;;
62475;SDS011;50739;45.670;11.936;2024-01-06T06:15:19;0.70;;;0.60;;
62475;SDS011;50739;45.670;11.936;2024-01-06T06:20:21;0.75;;;0.75;;
62475;SDS011;50739;45.670;11.936;2024-01-06T06:25:25;0.70;;;0.70;;
62475;SDS011;50739;45.670;11.936;2024-01-06T06:30:27;1.23;;;0.60;;
62475;SDS011;50739;45.670;11.936;2024-01-06T06:35:30;1.00;;;0.70;;
62475;SDS011;50739;45.670;11.936;2024-01-06T06:40:34;1.00;;;0.90;;
62475;SDS011;50739;45.670;11.936;2024-01-06T06:45:36;0.93;;;0.82;;
62475;SDS011;50739;45.670;11.936;2024-01-06T06:50:38;0.70;;;0.70;;
62475;SDS011;50739;45.670;11.936;2024-01-06T06:55:43;1.25;;;1.02;;
62475;SDS011;50739;45.670;11.936;2024-01-06T07:00:45;1.20;;;0.88;;
62475;SDS011;50739;45.670;11.936;2024-01-06T07:05:47;1.50;;;0.90;;
62475;SDS011;50739;45.670;11.936;2024-01-06T07:10:51;1.52;;;0.95;;
62475;SDS011;50739;45.670;11.936;2024-01-06T07:15:53;0.93;;;0.73;;
62475;SDS011;50739;45.670;11.936;2024-01-06T07:20:56;0.80;;;0.70;;
62475;SDS011;50739;45.670;11.936;2024-01-06T07:26:00;1.13;;;0.68;;
62475;SDS011;50739;45.670;11.936;2024-01-06T07:31:02;0.73;;;0.73;;
62475;SDS011;50739;45.670;11.936;2024-01-06T07:36:06;1.00;;;0.70;;
62475;SDS011;50739;45.670;11.936;2024-01-06T07:41:09;1.45;;;0.80;;
62475;SDS011;50739;45.670;11.936;2024-01-06T07:46:12;1.07;;;0.87;;
62475;SDS011;50739;45.670;11.936;2024-01-06T07:51:14;0.85;;;0.75;;
62475;SDS011;50739;45.670;11.936;2024-01-06T07:56:18;2.28;;;1.10;;
62475;SDS011;50739;45.670;11.936;2024-01-06T08:01:20;1.17;;;1.08;;
62475;SDS011;50739;45.670;11.936;2024-01-06T08:06:23;1.60;;;0.98;;
62475;SDS011;50739;45.670;11.936;2024-01-06T08:11:27;1.73;;;0.90;;
62475;SDS011;50739;45.670;11.936;2024-01-06T08:16:30;1.20;;;1.00;;
62475;SDS011;50739;45.670;11.936;2024-01-06T08:21:32;1.80;;;1.00;;
62475;SDS011;50739;45.670;11.936;2024-01-06T08:26:36;1.47;;;1.10;;
62475;SDS011;50739;45.670;11.936;2024-01-06T08:31:39;1.25;;;0.88;;
62475;SDS011;50739;45.670;11.936;2024-01-06T08:36:41;1.40;;;1.10;;
62475;SDS011;50739;45.670;11.936;2024-01-06T08:41:45;2.17;;;1.30;;
62475;SDS011;50739;45.670;11.936;2024-01-06T08:46:48;1.50;;;1.00;;
62475;SDS011;50739;45.670;11.936;2024-01-06T08:51:50;1.10;;;1.00;;
62475;SDS011;50739;45.670;11.936;2024-01-06T08:56:54;1.20;;;1.08;;
62475;SDS011;50739;45.670;11.936;2024-01-06T09:26:27;2.25;;;1.80;;
62475;SDS011;50739;45.670;11.936;2024-01-06T09:31:30;1.57;;;1.47;;
62475;SDS011;50739;45.670;11.936;2024-01-06T09:36:40;1.87;;;1.23;;
62475;SDS011;50739;45.670;11.936;2024-01-06T09:41:44;3.27;;;1.77;;
62475;SDS011;50739;45.670;11.936;2024-01-06T09:46:46;1.77;;;1.60;;
62475;SDS011;50739;45.670;11.936;2024-01-06T09:51:49;1.90;;;1.48;;
62475;SDS011;50739;45.670;11.936;2024-01-06T09:56:54;2.17;;;1.57;;
62475;SDS011;50739;45.670;11.936;2024-01-06T10:01:57;2.47;;;1.40;;
62475;SDS011;50739;45.670;11.936;2024-01-06T10:06:59;2.13;;;1.43;;
62475;SDS011;50739;45.670;11.936;2024-01-06T10:12:03;2.03;;;1.63;;
62475;SDS011;50739;45.670;11.936;2024-01-06T10:17:06;2.17;;;1.80;;
62475;SDS011;50739;45.670;11.936;2024-01-06T10:22:09;2.80;;;1.90;;
62475;SDS011;50739;45.670;11.936;2024-01-06T10:27:13;3.47;;;1.60;;
62475;SDS011;50739;45.670;11.936;2024-01-06T10:32:16;2.53;;;1.90;;
62475;SDS011;50739;45.670;11.936;2024-01-06T10:37:19;2.13;;;1.88;;
62475;SDS011;50739;45.670;11.936;2024-01-06T10:42:23;2.15;;;1.58;;
62475;SDS011;50739;45.670;11.936;2024-01-06T10:47:25;3.13;;;1.60;;
62475;SDS011;50739;45.670;11.936;2024-01-06T10:52:33;3.22;;;1.90;;
62475;SDS011;50739;45.670;11.936;2024-01-06T10:57:37;2.20;;;2.00;;
62475;SDS011;50739;45.670;11.936;2024-01-06T11:02:41;2.95;;;1.80;;
62475;SDS011;50739;45.670;11.936;2024-01-06T11:07:44;2.25;;;1.50;;
62475;SDS011;50739;45.670;11.936;2024-01-06T11:23:34;3.35;;;1.65;;
62475;SDS011;50739;45.670;11.936;2024-01-06T11:28:44;2.53;;;1.60;;
62475;SDS011;50739;45.670;11.936;2024-01-06T11:33:47;3.03;;;1.95;;
62475;SDS011;50739;45.670;11.936;2024-01-06T11:38:53;2.55;;;1.58;;
62475;SDS011;50739;45.670;11.936;2024-01-06T11:43:57;2.85;;;2.10;;
62475;SDS011;50739;45.670;11.936;2024-01-06T11:48:59;1.47;;;1.37;;
62475;SDS011;50739;45.670;11.936;2024-01-06T11:54:01;2.15;;;1.50;;
62475;SDS011;50739;45.670;11.936;2024-01-06T11:59:05;1.50;;;1.40;;
62475;SDS011;50739;45.670;11.936;2024-01-06T12:04:08;2.77;;;1.80;;
62475;SDS011;50739;45.670;11.936;2024-01-06T12:09:16;3.50;;;1.83;;
62475;SDS011;50739;45.670;11.936;2024-01-06T12:14:21;2.53;;;1.90;;
62475;SDS011;50739;45.670;11.936;2024-01-06T12:19:24;3.05;;;2.00;;
62475;SDS011;50739;45.670;11.936;2024-01-06T12:24:27;4.97;;;2.63;;
62475;SDS011;50739;45.670;11.936;2024-01-06T12:29:32;2.55;;;2.20;;
62475;SDS011;50739;45.670;11.936;2024-01-06T12:34:34;5.70;;;3.08;;
62475;SDS011;50739;45.670;11.936;2024-01-06T12:39:37;3.38;;;2.30;;
62475;SDS011;50739;45.670;11.936;2024-01-06T12:44:40;2.20;;;1.80;;
62475;SDS011;50739;45.670;11.936;2024-01-06T12:49:43;2.47;;;2.00;;
62475;SDS011;50739;45.670;11.936;2024-01-06T12:54:46;2.43;;;1.70;;
62475;SDS011;50739;45.670;11.936;2024-01-06T12:59:50;2.13;;;1.73;;
62475;SDS011;50739;45.670;11.936;2024-01-06T13:04:52;2.40;;;1.65;;
62475;SDS011;50739;45.670;11.936;2024-01-06T13:09:55;2.45;;;1.73;;
62475;SDS011;50739;45.670;11.936;2024-01-06T13:14:59;2.15;;;1.65;;
62475;SDS011;50739;45.670;11.936;2024-01-06T13:20:02;2.72;;;1.70;;
62475;SDS011;50739;45.670;11.936;2024-01-06T13:25:06;2.30;;;1.70;;
62475;SDS011;50739;45.670;11.936;2024-01-06T13:30:11;1.90;;;1.58;;
62475;SDS011;50739;45.670;11.936;2024-01-06T13:35:15;1.88;;;1.60;;
62475;SDS011;50739;45.670;11.936;2024-01-06T13:40:18;3.15;;;1.85;;
62475;SDS011;50739;45.670;11.936;2024-01-06T13:45:23;3.10;;;1.90;;
62475;SDS011;50739;45.670;11.936;2024-01-06T13:50:25;2.20;;;1.98;;
62475;SDS011;50739;45.670;11.936;2024-01-06T13:55:27;2.55;;;1.85;;
62475;SDS011;50739;45.670;11.936;2024-01-06T14:00:31;1.85;;;1.63;;
62475;SDS011;50739;45.670;11.936;2024-01-06T14:05:34;3.17;;;2.47;;
62475;SDS011;50739;45.670;11.936;2024-01-06T14:10:36;2.03;;;1.80;;
62475;SDS011;50739;45.670;11.936;2024-01-06T14:15:40;2.13;;;1.70;;
62475;SDS011;50739;45.670;11.936;2024-01-06T14:20:44;2.95;;;2.17;;
62475;SDS011;50739;45.670;11.936;2024-01-06T14:25:46;2.90;;;1.70;;
62475;SDS011;50739;45.670;11.936;2024-01-06T14:30:50;2.23;;;2.00;;
62475;SDS011;50739;45.670;11.936;2024-01-06T14:35:53;2.38;;;1.65;;
62475;SDS011;50739;45.670;11.936;2024-01-06T14:40:55;2.58;;;2.00;;
62475;SDS011;50739;45.670;11.936;2024-01-06T14:46:01;3.40;;;2.22;;
62475;SDS011;50739;45.670;11.936;2024-01-06T14:51:14;4.60;;;2.90;;
62475;SDS011;50739;45.670;11.936;2024-01-06T14:56:22;4.32;;;3.22;;
62475;SDS011;50739;45.670;11.936;2024-01-06T15:01:27;5.30;;;3.60;;
62475;SDS011;50739;45.670;11.936;2024-01-06T15:06:29;4.93;;;2.83;;
62475;SDS011;50739;45.670;11.936;2024-01-06T15:11:32;5.53;;;3.40;;
62475;SDS011;50739;45.670;11.936;2024-01-06T15:16:38;5.30;;;3.88;;
62475;SDS011;50739;45.670;11.936;2024-01-06T15:21:40;4.83;;;3.70;;
62475;SDS011;50739;45.670;11.936;2024-01-06T15:26:43;6.00;;;4.38;;
62475;SDS011;50739;45.670;11.936;2024-01-06T15:31:47;6.07;;;3.87;;
62475;SDS011;50739;45.670;11.936;2024-01-06T15:36:49;4.82;;;4.20;;
62475;SDS011;50739;45.670;11.936;2024-01-06T15:41:52;4.63;;;3.20;;
62475;SDS011;50739;45.670;11.936;2024-01-06T15:46:55;4.28;;;3.25;;
62475;SDS011;50739;45.670;11.936;2024-01-06T15:51:58;4.07;;;2.67;;
62475;SDS011;50739;45.670;11.936;2024-01-06T15:57:01;2.67;;;2.23;;
62475;SDS011;50739;45.670;11.936;2024-01-06T16:02:04;3.30;;;2.20;;
62475;SDS011;50739;45.670;11.936;2024-01-06T16:07:07;2.65;;;2.33;;
62475;SDS011;50739;45.670;11.936;2024-01-06T16:12:10;3.25;;;2.65;;
62475;SDS011;50739;45.670;11.936;2024-01-06T16:17:13;4.90;;;3.20;;
62475;SDS011;50739;45.670;11.936;2024-01-06T16:22:17;3.17;;;2.50;;
62475;SDS011;50739;45.670;11.936;2024-01-06T16:27:20;3.47;;;2.72;;
62475;SDS011;50739;45.670;11.936;2024-01-06T16:32:24;3.77;;;2.60;;
62475;SDS011;50739;45.670;11.936;2024-01-06T16:37:26;3.13;;;2.28;;
62475;SDS011;50739;45.670;11.936;2024-01-06T16:42:29;3.25;;;1.80;;
62475;SDS011;50739;45.670;11.936;2024-01-06T16:47:32;2.43;;;1.97;;
62475;SDS011;50739;45.670;11.936;2024-01-06T16:52:35;2.47;;;2.00;;
62475;SDS011;50739;45.670;11.936;2024-01-06T16:57:38;3.03;;;1.88;;
62475;SDS011;50739;45.670;11.936;2024-01-06T17:02:42;2.38;;;1.70;;
62475;SDS011;50739;45.670;11.936;2024-01-06T17:07:44;2.07;;;1.80;;
62475;SDS011;50739;45.670;11.936;2024-01-06T17:12:48;2.77;;;2.13;;
62475;SDS011;50739;45.670;11.936;2024-01-06T17:17:52;2.57;;;2.27;;
62475;SDS011;50739;45.670;11.936;2024-01-06T17:22:54;3.28;;;2.50;;
62475;SDS011;50739;45.670;11.936;2024-01-06T17:27:57;5.13;;;3.25;;
62475;SDS011;50739;45.670;11.936;2024-01-06T17:33:00;4.00;;;2.80;;
62475;SDS011;50739;45.670;11.936;2024-01-06T17:38:03;3.90;;;3.05;;
62475;SDS011;50739;45.670;11.936;2024-01-06T17:43:05;4.65;;;3.35;;
62475;SDS011;50739;45.670;11.936;2024-01-06T17:48:09;6.68;;;5.97;;
62475;SDS011;50739;45.670;11.936;2024-01-06T17:53:12;7.30;;;4.20;;
62475;SDS011;50739;45.670;11.936;2024-01-06T17:58:14;4.90;;;3.53;;
62475;SDS011;50739;45.670;11.936;2024-01-06T18:03:18;4.00;;;3.20;;
62475;SDS011;50739;45.670;11.936;2024-01-06T18:08:23;4.88;;;3.70;;
62475;SDS011;50739;45.670;11.936;2024-01-06T18:13:26;5.97;;;4.25;;
62475;SDS011;50739;45.670;11.936;2024-01-06T18:18:29;5.60;;;3.40;;
62475;SDS011;50739;45.670;11.936;2024-01-06T18:23:32;6.18;;;3.13;;
62475;SDS011;50739;45.670;11.936;2024-01-06T18:28:34;3.70;;;2.65;;
62475;SDS011;50739;45.670;11.936;2024-01-06T18:33:38;3.85;;;3.13;;
62475;SDS011;50739;45.670;11.936;2024-01-06T18:38:41;3.30;;;2.60;;
62475;SDS011;50739;45.670;11.936;2024-01-06T18:43:43;3.45;;;2.65;;
62475;SDS011;50739;45.670;11.936;2024-01-06T18:48:47;2.50;;;2.30;;
62475;SDS011;50739;45.670;11.936;2024-01-06T18:53:54;2.50;;;2.20;;
62475;SDS011;50739;45.670;11.936;2024-01-06T18:58:56;3.40;;;2.55;;
62475;SDS011;50739;45.670;11.936;2024-01-06T19:04:00;3.67;;;2.53;;
62475;SDS011;50739;45.670;11.936;2024-01-06T19:09:06;3.73;;;3.07;;
62475;SDS011;50739;45.670;11.936;2024-01-06T19:14:08;4.80;;;2.97;;
62475;SDS011;50739;45.670;11.936;2024-01-06T19:19:12;5.10;;;3.10;;
62475;SDS011;50739;45.670;11.936;2024-01-06T19:24:14;6.77;;;4.43;;
62475;SDS011;50739;45.670;11.936;2024-01-06T19:29:17;5.30;;;4.20;;
62475;SDS011;50739;45.670;11.936;2024-01-06T19:34:20;3.45;;;2.83;;
62475;SDS011;50739;45.670;11.936;2024-01-06T19:39:23;3.20;;;2.90;;
62475;SDS011;50739;45.670;11.936;2024-01-06T19:44:25;2.30;;;1.92;;
62475;SDS011;50739;45.670;11.936;2024-01-06T19:49:29;4.43;;;3.60;;
62475;SDS011;50739;45.670;11.936;2024-01-06T19:54:32;3.73;;;2.80;;
62475;SDS011;50739;45.670;11.936;2024-01-06T19:59:36;3.28;;;2.47;;
62475;SDS011;50739;45.670;11.936;2024-01-06T20:04:40;4.07;;;3.58;;
62475;SDS011;50739;45.670;11.936;2024-01-06T20:09:43;3.45;;;3.15;;
62475;SDS011;50739;45.670;11.936;2024-01-06T20:14:46;3.03;;;2.70;;
62475;SDS011;50739;45.670;11.936;2024-01-06T20:19:49;3.97;;;3.10;;
62475;SDS011;50739;45.670;11.936;2024-01-06T20:24:54;3.08;;;2.65;;
62475;SDS011;50739;45.670;11.936;2024-01-06T20:29:59;3.97;;;2.35;;
62475;SDS011;50739;45.670;11.936;2024-01-06T20:35:07;3.85;;;2.50;;
62475;SDS011;50739;45.670;11.936;2024-01-06T20:40:18;3.17;;;2.17;;
62475;SDS011;50739;45.670;11.936;2024-01-06T20:45:24;12.30;;;6.77;;
62475;SDS011;50739;45.670;11.936;2024-01-06T20:50:36;38.13;;;20.97;;
62475;SDS011;50739;45.670;11.936;2024-01-06T20:55:47;36.58;;;21.20;;
62475;SDS011;50739;45.670;11.936;2024-01-06T21:00:50;34.42;;;18.88;;
62475;SDS011;50739;45.670;11.936;2024-01-06T21:05:54;25.07;;;13.80;;
62475;SDS011;50739;45.670;11.936;2024-01-06T21:10:56;24.48;;;14.23;;
62475;SDS011;50739;45.670;11.936;2024-01-06T21:16:00;10.15;;;6.70;;
62475;SDS011;50739;45.670;11.936;2024-01-06T21:21:04;9.38;;;5.95;;
62475;SDS011;50739;45.670;11.936;2024-01-06T21:26:06;8.60;;;5.50;;
62475;SDS011;50739;45.670;11.936;2024-01-06T21:31:09;6.70;;;4.22;;
62475;SDS011;50739;45.670;11.936;2024-01-06T21:36:13;4.78;;;3.20;;
62475;SDS011;50739;45.670;11.936;2024-01-06T21:41:16;4.18;;;3.17;;
62475;SDS011;50739;45.670;11.936;2024-01-06T21:46:18;4.03;;;2.60;;
62475;SDS011;50739;45.670;11.936;2024-01-06T21:51:22;3.65;;;2.50;;
62475;SDS011;50739;45.670;11.936;2024-01-06T21:56:25;2.90;;;1.80;;
62475;SDS011;50739;45.670;11.936;2024-01-06T22:01:28;4.07;;;2.13;;
62475;SDS011;50739;45.670;11.936;2024-01-06T22:06:31;2.45;;;1.50;;
62475;SDS011;50739;45.670;11.936;2024-01-06T22:11:36;2.25;;;1.40;;
62475;SDS011;50739;45.670;11.936;2024-01-06T22:16:38;1.77;;;1.27;;
62475;SDS011;50739;45.670;11.936;2024-01-06T22:21:42;0.93;;;0.70;;
62475;SDS011;50739;45.670;11.936;2024-01-06T22:26:47;1.55;;;0.80;;
62475;SDS011;50739;45.670;11.936;2024-01-06T22:31:49;1.08;;;0.73;;
62475;SDS011;50739;45.670;11.936;2024-01-06T22:36:53;0.60;;;0.53;;
62475;SDS011;50739;45.670;11.936;2024-01-06T22:41:56;1.13;;;0.63;;
62475;SDS011;50739;45.670;11.936;2024-01-06T22:46:58;1.92;;;0.63;;
62475;SDS011;50739;45.670;11.936;2024-01-06T22:52:02;1.08;;;0.80;;
62475;SDS011;50739;45.670;11.936;2024-01-06T22:57:05;0.68;;;0.60;;
62475;SDS011;50739;45.670;11.936;2024-01-06T23:02:07;0.80;;;0.63;;
62475;SDS011;50739;45.670;11.936;2024-01-06T23:07:11;0.68;;;0.63;;
62475;SDS011;50739;45.670;11.936;2024-01-06T23:12:14;0.90;;;0.60;;
62475;SDS011;50739;45.670;11.936;2024-01-06T23:17:16;0.50;;;0.50;;
62475;SDS011;50739;45.670;11.936;2024-01-06T23:22:22;0.80;;;0.60;;
62475;SDS011;50739;45.670;11.936;2024-01-06T23:27:25;0.60;;;0.57;;
62475;SDS011;50739;45.670;11.936;2024-01-06T23:32:27;0.90;;;0.60;;
62475;SDS011;50739;45.670;11.936;2024-01-06T23:37:31;0.77;;;0.60;;
62475;SDS011;50739;45.670;11.936;2024-01-06T23:42:34;1.27;;;0.60;;
62475;SDS011;50739;45.670;11.936;2024-01-06T23:47:36;1.00;;;0.52;;
62475;SDS011;50739;45.670;11.936;2024-01-06T23:52:40;1.08;;;0.60;;
62475;SDS011;50739;45.670;11.936;2024-01-06T23:57:42;0.83;;;0.47;;
